CheckWX is a tool to help pilots better visualize weather data.  It is not intended as a substitute for an official pre-flight weather briefing.

05:31:24 UTC

KASL METAR
Harrison County Airport
Marshall, Texas, USA
Current

16 mins ago

KASL 080515Z AUTO 00000KT 5SM CLR 07/06 A3021 RMK AO1 T00720063
Observed
Dec-8 @ 05:15 UTC
Visibility
5 SM
Flight Rules
MVFR
Cloud Levels
  • Clear skies
Temperature
C / 45°F
Dewpoint
C / 43°F
Humidity
93%
Altimeter
30.21" Hg
Pressure
1023.02 hPa
Previous

36 mins ago

KASL 080455Z AUTO 00000KT 4SM CLR 07/06 A3020 RMK AO1 T00720063
Observed
Dec-8 @ 04:55 UTC
Visibility
4 SM
Flight Rules
MVFR
Cloud Levels
  • Clear skies
Temperature
C / 45°F
Dewpoint
C / 43°F
Humidity
93%
Altimeter
30.2" Hg
Pressure
1022.72 hPa
Previous

56 mins ago

KASL 080435Z AUTO 00000KT 3SM CLR 06/05 A3021 RMK AO1 T00580050
Observed
Dec-8 @ 04:35 UTC
Visibility
3 SM
Flight Rules
MVFR
Cloud Levels
  • Clear skies
Temperature
C / 43°F
Dewpoint
C / 41°F
Humidity
93%
Altimeter
30.21" Hg
Pressure
1023.02 hPa